Time;durP1;ratioP1;P1;durP2;ratioP2;P2;SDS_P1;SDS_P2;PMS_P1;PMS_P2;Temp;Humidity;BMP_temperature;BMP_pressure;BME280_temperature;BME280_humidity;BME280_pressure;Samples;Min_cycle;Max_cycle;Signal;HPM_P1;HPM_P2
2024/03/18 00:00:14;;;;;;;11.23;7.50;;;8.70;99.90;;;;;;5065759;28;20427;-75
2024/03/18 00:02:45;;;;;;;11.43;7.95;;;8.60;99.90;;;;;;5063659;28;20047;-74
2024/03/18 00:05:12;;;;;;;13.68;8.52;;;8.70;99.90;;;;;;5066398;28;20028;-74
2024/03/18 00:07:38;;;;;;;13.18;8.02;;;8.60;99.90;;;;;;5049517;28;20454;-74
2024/03/18 00:10:04;;;;;;;14.98;8.90;;;8.60;99.90;;;;;;5053686;28;20020;-74
2024/03/18 00:12:30;;;;;;;12.40;8.43;;;8.60;99.90;;;;;;5063174;28;20035;-74
2024/03/18 00:14:56;;;;;;;12.27;8.13;;;8.60;99.90;;;;;;5061591;28;20025;-74
2024/03/18 00:17:21;;;;;;;14.23;8.40;;;8.60;99.90;;;;;;5045027;28;20020;-74
2024/03/18 00:19:48;;;;;;;13.73;8.40;;;8.60;99.90;;;;;;5063754;28;20731;-75
2024/03/18 00:22:14;;;;;;;16.20;9.60;;;8.60;99.90;;;;;;5065011;28;20583;-74
2024/03/18 00:24:40;;;;;;;10.25;7.68;;;8.60;99.90;;;;;;5066411;28;20100;-75
2024/03/18 00:27:06;;;;;;;11.95;7.53;;;8.60;99.90;;;;;;5066019;28;20545;-74
2024/03/18 00:29:32;;;;;;;8.43;6.90;;;8.60;99.90;;;;;;5062691;28;20049;-75
2024/03/18 00:31:57;;;;;;;12.57;7.55;;;8.60;99.90;;;;;;5064232;28;20110;-75
2024/03/18 00:34:23;;;;;;;11.98;7.63;;;8.60;99.90;;;;;;5067743;28;20091;-75
2024/03/18 00:36:49;;;;;;;11.50;7.03;;;8.60;99.90;;;;;;5052004;28;20119;-75
2024/03/18 00:39:15;;;;;;;14.85;7.85;;;8.60;99.90;;;;;;5063247;28;20108;-75
2024/03/18 00:41:45;;;;;;;11.23;7.43;;;8.60;99.90;;;;;;5045742;28;20024;-75
2024/03/18 00:44:14;;;;;;;10.45;7.65;;;8.60;99.90;;;;;;5062567;28;20054;-75
2024/03/18 00:46:57;;;;;;;12.80;7.20;;;8.60;99.90;;;;;;5066028;28;20056;-75
2024/03/18 00:49:23;;;;;;;11.35;7.28;;;8.60;99.90;;;;;;5067714;28;20032;-75
2024/03/18 00:51:49;;;;;;;8.95;7.38;;;8.60;99.90;;;;;;5042090;28;20036;-75
2024/03/18 00:54:15;;;;;;;10.15;7.57;;;8.60;99.90;;;;;;5065177;28;20128;-76
2024/03/18 00:56:40;;;;;;;15.45;8.77;;;8.60;99.90;;;;;;5066650;28;20396;-76
2024/03/18 00:59:06;;;;;;;12.95;8.52;;;8.70;99.90;;;;;;5067048;28;20040;-76
2024/03/18 01:01:37;;;;;;;13.73;8.38;;;8.60;99.90;;;;;;5063476;28;20056;-76
2024/03/18 01:04:04;;;;;;;11.05;8.48;;;8.70;99.90;;;;;;5068508;28;20516;-75
2024/03/18 01:06:30;;;;;;;10.07;7.50;;;8.70;99.90;;;;;;5068083;28;20032;-75
2024/03/18 01:08:56;;;;;;;11.05;7.60;;;8.70;99.90;;;;;;5063431;28;20035;-74
2024/03/18 01:11:22;;;;;;;10.73;7.47;;;8.70;99.90;;;;;;5058660;28;20130;-75
2024/03/18 01:13:48;;;;;;;10.35;7.30;;;8.70;99.90;;;;;;5065576;28;20082;-74
2024/03/18 01:16:20;;;;;;;11.50;7.25;;;8.70;99.90;;;;;;5068910;28;20025;-74
2024/03/18 01:18:48;;;;;;;11.20;7.70;;;8.70;99.90;;;;;;5066560;28;20025;-74
2024/03/18 01:21:16;;;;;;;9.20;6.72;;;8.60;99.90;;;;;;5059294;28;20075;-75
2024/03/18 01:23:41;;;;;;;10.50;6.43;;;8.70;99.90;;;;;;5068104;28;20021;-75
2024/03/18 01:26:07;;;;;;;14.25;7.93;;;8.70;99.90;;;;;;5065268;28;20243;-75
2024/03/18 01:28:36;;;;;;;12.00;8.02;;;8.70;99.90;;;;;;5056852;28;20460;-75
2024/03/18 01:31:03;;;;;;;13.02;8.07;;;8.60;99.90;;;;;;5047886;28;20391;-74
2024/03/18 01:33:33;;;;;;;10.75;8.00;;;8.60;99.90;;;;;;5044205;28;20044;-74
2024/03/18 01:36:00;;;;;;;13.93;7.53;;;8.60;99.90;;;;;;5068789;28;20113;-75
2024/03/18 01:38:27;;;;;;;14.13;8.45;;;8.60;99.90;;;;;;5057659;28;20976;-75
2024/03/18 01:40:54;;;;;;;14.20;7.90;;;8.60;99.90;;;;;;5062827;28;20404;-75
2024/03/18 01:43:22;;;;;;;10.65;7.13;;;8.60;99.90;;;;;;5071264;28;20090;-75
2024/03/18 01:45:48;;;;;;;10.65;7.40;;;8.60;99.90;;;;;;5058066;28;20028;-75
2024/03/18 01:48:15;;;;;;;10.75;7.18;;;8.60;99.90;;;;;;4998009;28;20115;-75
2024/03/18 01:50:41;;;;;;;13.32;6.75;;;8.60;99.90;;;;;;5069421;28;20441;-76
2024/03/18 01:53:10;;;;;;;10.13;7.40;;;8.60;99.90;;;;;;5053635;28;20024;-76
2024/03/18 01:55:38;;;;;;;10.68;8.18;;;8.60;99.90;;;;;;5060798;28;20095;-75
2024/03/18 01:58:06;;;;;;;12.10;7.45;;;8.60;99.90;;;;;;5069764;28;20404;-75
2024/03/18 02:00:35;;;;;;;10.18;7.25;;;8.60;99.90;;;;;;5055986;28;20080;-75
2024/03/18 02:03:07;;;;;;;8.95;6.65;;;8.60;99.90;;;;;;5067740;28;20052;-76
2024/03/18 02:05:38;;;;;;;11.13;6.72;;;8.60;99.90;;;;;;5068931;28;20044;-75
2024/03/18 02:08:06;;;;;;;9.55;6.85;;;8.60;99.90;;;;;;5057087;28;20068;-75
2024/03/18 02:10:32;;;;;;;8.95;6.05;;;8.60;99.90;;;;;;5049423;28;20438;-75
2024/03/18 02:13:02;;;;;;;11.45;6.63;;;8.60;99.90;;;;;;5065194;28;20024;-75
2024/03/18 02:15:32;;;;;;;10.55;7.00;;;8.60;99.90;;;;;;5052373;28;20025;-75
2024/03/18 02:17:58;;;;;;;10.93;6.50;;;8.60;99.90;;;;;;5066831;28;20016;-75
2024/03/18 02:20:25;;;;;;;12.25;6.72;;;8.60;99.90;;;;;;5052791;28;20024;-75
2024/03/18 02:22:52;;;;;;;11.82;6.30;;;8.70;99.90;;;;;;5069543;28;20043;-75
2024/03/18 02:25:18;;;;;;;10.32;6.38;;;8.70;99.90;;;;;;5043894;28;20491;-75
2024/03/18 02:27:44;;;;;;;8.23;6.65;;;8.70;99.90;;;;;;5054451;28;20068;-75
2024/03/18 02:30:11;;;;;;;10.07;6.78;;;8.70;99.90;;;;;;5074050;28;20075;-75
2024/03/18 02:32:37;;;;;;;12.23;6.55;;;8.60;99.90;;;;;;5084410;28;20024;-74
2024/03/18 02:35:08;;;;;;;9.68;7.40;;;8.60;99.90;;;;;;5075592;28;20024;-75
2024/03/18 02:37:34;;;;;;;9.05;7.00;;;8.60;99.90;;;;;;5064638;28;20017;-73
2024/03/18 02:40:07;;;;;;;11.15;8.05;;;8.60;99.90;;;;;;5067041;28;20120;-74
2024/03/18 02:42:36;;;;;;;9.00;7.00;;;8.60;99.90;;;;;;5071356;28;20079;-74
2024/03/18 02:45:03;;;;;;;10.10;7.40;;;8.60;99.90;;;;;;5071569;28;20021;-74
2024/03/18 02:47:31;;;;;;;12.68;6.95;;;8.60;99.90;;;;;;5059004;28;20116;-73
2024/03/18 02:49:57;;;;;;;11.65;8.25;;;8.60;99.90;;;;;;5071403;28;20040;-73
2024/03/18 02:52:23;;;;;;;12.98;7.90;;;8.60;99.90;;;;;;5062386;28;20391;-74
2024/03/18 02:54:49;;;;;;;14.00;8.18;;;8.60;99.90;;;;;;5064511;28;20392;-74
2024/03/18 02:57:16;;;;;;;19.55;8.95;;;8.60;99.90;;;;;;5065810;28;20032;-73
2024/03/18 02:59:43;;;;;;;11.38;7.90;;;8.60;99.90;;;;;;5065403;28;20025;-73
2024/03/18 03:02:08;;;;;;;12.20;7.88;;;8.60;99.90;;;;;;5051008;28;20228;-74
2024/03/18 03:04:35;;;;;;;11.77;8.65;;;8.50;99.90;;;;;;5064941;28;20533;-73
2024/03/18 03:07:01;;;;;;;13.45;8.25;;;8.50;99.90;;;;;;5079491;28;20008;-74
2024/03/18 03:09:28;;;;;;;12.77;8.27;;;8.50;99.90;;;;;;5089981;28;20029;-75
2024/03/18 03:11:53;;;;;;;16.25;8.40;;;8.50;99.90;;;;;;5081917;28;20115;-76
2024/03/18 03:14:19;;;;;;;12.77;8.70;;;8.50;99.90;;;;;;5084868;28;20480;-75
2024/03/18 03:16:45;;;;;;;12.68;8.85;;;8.50;99.90;;;;;;5066883;28;20676;-75
2024/03/18 03:19:11;;;;;;;14.90;8.40;;;8.50;99.90;;;;;;5068012;28;20028;-74
2024/03/18 03:21:36;;;;;;;11.93;8.25;;;8.50;99.90;;;;;;5069538;28;20037;-74
2024/03/18 03:24:03;;;;;;;9.35;7.40;;;8.50;99.90;;;;;;5049910;28;20067;-75
2024/03/18 03:26:29;;;;;;;12.43;7.90;;;8.50;99.90;;;;;;5067098;28;20120;-74
2024/03/18 03:28:56;;;;;;;11.27;7.88;;;8.50;99.90;;;;;;5059269;28;20037;-74
2024/03/18 03:31:21;;;;;;;11.95;8.82;;;8.50;99.90;;;;;;5059501;28;20063;-74
2024/03/18 03:33:47;;;;;;;14.93;9.18;;;8.50;99.90;;;;;;5068243;28;20484;-74
2024/03/18 03:36:13;;;;;;;13.05;8.60;;;8.50;99.90;;;;;;5064451;28;20116;-74
2024/03/18 03:38:38;;;;;;;12.95;9.27;;;8.50;99.90;;;;;;5036337;28;20401;-74
2024/03/18 03:41:04;;;;;;;11.30;8.88;;;8.50;99.90;;;;;;5049461;28;20035;-74
2024/03/18 03:43:30;;;;;;;14.75;8.30;;;8.50;99.90;;;;;;5067098;28;20044;-74
2024/03/18 03:46:01;;;;;;;14.38;9.05;;;8.50;99.90;;;;;;5050656;28;20031;-74
2024/03/18 03:48:29;;;;;;;15.02;9.27;;;8.50;99.90;;;;;;5057456;28;20554;-74
2024/03/18 03:50:56;;;;;;;11.57;8.82;;;8.50;99.90;;;;;;5063848;28;20036;-75
2024/03/18 03:53:24;;;;;;;15.30;9.65;;;8.50;99.90;;;;;;5061594;28;20025;-75
2024/03/18 03:55:57;;;;;;;11.02;8.10;;;8.50;99.90;;;;;;5054615;28;20040;-75
2024/03/18 03:58:25;;;;;;;14.85;9.05;;;8.50;99.90;;;;;;5069162;28;20387;-75
2024/03/18 04:00:52;;;;;;;11.05;8.80;;;8.50;99.90;;;;;;5065300;28;20013;-75
2024/03/18 04:03:27;;;;;;;11.60;8.20;;;8.50;99.90;;;;;;5060317;28;20048;-75
2024/03/18 04:05:54;;;;;;;12.68;8.05;;;8.50;99.90;;;;;;5048340;28;20391;-75
2024/03/18 04:08:21;;;;;;;11.05;9.05;;;8.50;99.90;;;;;;5065933;28;20399;-75
2024/03/18 04:10:49;;;;;;;12.27;8.57;;;8.40;99.90;;;;;;5063901;28;20021;-75
2024/03/18 04:13:16;;;;;;;11.45;8.10;;;8.40;99.90;;;;;;5058918;28;20571;-75
2024/03/18 04:15:45;;;;;;;19.40;9.52;;;8.30;99.90;;;;;;5065832;28;20033;-75
2024/03/18 04:18:11;;;;;;;12.10;9.15;;;8.30;99.90;;;;;;5065489;28;20024;-75
2024/03/18 04:20:37;;;;;;;18.05;10.93;;;8.30;99.90;;;;;;5054754;28;20104;-74
2024/03/18 04:23:05;;;;;;;9.85;8.57;;;8.30;99.90;;;;;;5043895;28;20115;-74
2024/03/18 04:25:33;;;;;;;11.07;8.68;;;8.30;99.90;;;;;;5067129;28;20107;-74
2024/03/18 04:28:02;;;;;;;18.70;9.63;;;8.30;99.90;;;;;;5061829;28;20029;-74
2024/03/18 04:30:29;;;;;;;11.68;8.32;;;8.30;99.90;;;;;;5054456;28;20033;-74
2024/03/18 04:32:55;;;;;;;13.80;9.00;;;8.30;99.90;;;;;;5051961;28;20032;-75
2024/03/18 04:35:21;;;;;;;15.15;8.65;;;8.30;99.90;;;;;;5064035;28;20035;-75
2024/03/18 04:37:56;;;;;;;14.68;8.27;;;8.30;99.90;;;;;;5064315;28;20383;-75
2024/03/18 04:40:24;;;;;;;15.70;9.32;;;8.30;99.90;;;;;;5052768;28;20369;-75
2024/03/18 04:42:50;;;;;;;12.65;8.38;;;8.30;99.90;;;;;;5064308;28;20056;-74
2024/03/18 04:45:20;;;;;;;17.70;8.55;;;8.30;99.90;;;;;;5057793;28;20024;-74
2024/03/18 04:47:51;;;;;;;14.18;8.70;;;8.30;99.90;;;;;;5063825;28;20029;-75
2024/03/18 04:50:23;;;;;;;13.57;8.35;;;8.40;99.90;;;;;;5065050;28;20032;-74
2024/03/18 04:52:51;;;;;;;12.38;7.55;;;8.40;99.90;;;;;;5055486;28;20497;-74
2024/03/18 04:55:18;;;;;;;11.85;8.68;;;8.40;99.90;;;;;;5064850;28;20035;-75
2024/03/18 04:57:44;;;;;;;13.85;9.15;;;8.40;99.90;;;;;;5052268;28;20468;-74
2024/03/18 05:00:14;;;;;;;13.80;8.25;;;8.40;99.90;;;;;;5058323;28;20499;-74
2024/03/18 05:02:40;;;;;;;17.92;10.93;;;8.40;99.90;;;;;;5065132;28;20032;-74
2024/03/18 05:05:07;;;;;;;15.05;9.65;;;8.40;99.90;;;;;;5062959;28;20494;-74
2024/03/18 05:07:34;;;;;;;11.27;8.93;;;8.40;99.90;;;;;;5063949;28;20028;-74
2024/03/18 05:10:00;;;;;;;10.30;9.18;;;8.40;99.90;;;;;;5052990;28;20480;-75
2024/03/18 05:12:26;;;;;;;18.02;11.07;;;8.40;99.90;;;;;;5064803;28;20054;-75
2024/03/18 05:14:52;;;;;;;12.90;9.32;;;8.50;99.90;;;;;;5035893;28;20063;-74
2024/03/18 05:17:18;;;;;;;12.35;9.40;;;8.50;99.90;;;;;;5066236;28;20515;-75
2024/03/18 05:19:44;;;;;;;11.95;9.63;;;8.50;99.90;;;;;;5065614;28;20068;-75
2024/03/18 05:22:13;;;;;;;14.93;11.23;;;8.50;99.90;;;;;;5059630;28;20045;-75
2024/03/18 05:24:43;;;;;;;13.40;10.10;;;8.50;99.90;;;;;;5063804;28;20027;-75
2024/03/18 05:27:26;;;;;;;18.05;10.43;;;8.60;99.90;;;;;;5064846;28;20074;-74
2024/03/18 05:29:54;;;;;;;14.35;10.05;;;8.60;99.90;;;;;;5060902;28;20456;-75
2024/03/18 05:32:19;;;;;;;12.82;10.10;;;8.60;99.90;;;;;;5029569;28;20041;-75
2024/03/18 05:34:45;;;;;;;16.85;10.82;;;8.60;99.90;;;;;;5062085;28;20472;-75
2024/03/18 05:37:12;;;;;;;15.43;9.85;;;8.60;99.90;;;;;;5046802;28;20032;-75
2024/03/18 05:39:38;;;;;;;14.27;9.20;;;8.70;99.90;;;;;;5071118;28;20495;-75
2024/03/18 05:42:05;;;;;;;14.30;9.05;;;8.70;99.90;;;;;;5069544;28;20036;-75
2024/03/18 05:44:31;;;;;;;10.77;8.05;;;8.70;99.90;;;;;;5059179;28;20029;-75
2024/03/18 05:46:57;;;;;;;12.77;8.68;;;8.70;99.90;;;;;;5059876;28;20021;-75
2024/03/18 05:49:24;;;;;;;11.88;8.45;;;8.70;99.90;;;;;;5070339;28;20025;-75
2024/03/18 05:51:51;;;;;;;12.98;7.85;;;8.80;99.90;;;;;;5065540;28;20086;-74
2024/03/18 05:54:18;;;;;;;12.57;7.90;;;8.80;99.90;;;;;;5062074;28;20024;-75
2024/03/18 05:56:44;;;;;;;12.38;8.60;;;8.80;99.90;;;;;;5062190;28;20029;-74
2024/03/18 05:59:13;;;;;;;10.88;8.75;;;8.80;99.90;;;;;;5070323;28;20039;-74
2024/03/18 06:01:39;;;;;;;13.05;8.77;;;8.80;99.90;;;;;;5061471;28;20441;-73
2024/03/18 06:04:06;;;;;;;13.45;8.95;;;8.80;99.90;;;;;;5053151;28;20412;-73
2024/03/18 06:06:35;;;;;;;17.33;9.00;;;8.80;99.90;;;;;;5071481;28;20051;-74
2024/03/18 06:09:01;;;;;;;11.65;9.02;;;8.90;99.90;;;;;;5038210;28;20036;-73
2024/03/18 06:11:29;;;;;;;13.80;10.07;;;8.90;99.90;;;;;;5041941;28;20029;-76
2024/03/18 06:13:55;;;;;;;15.50;10.13;;;8.90;99.90;;;;;;5064518;28;20032;-73
2024/03/18 06:16:21;;;;;;;14.15;8.88;;;8.90;99.90;;;;;;5055664;28;20060;-71
2024/03/18 06:18:49;;;;;;;14.35;9.00;;;8.90;99.90;;;;;;5058743;28;20158;-72
2024/03/18 06:21:18;;;;;;;14.55;8.60;;;9.00;99.90;;;;;;5063761;28;20107;-74
2024/03/18 06:23:55;;;;;;;17.08;8.80;;;9.00;99.90;;;;;;5060407;28;20031;-75
2024/03/18 06:26:21;;;;;;;9.63;7.50;;;9.00;99.90;;;;;;5052555;28;20083;-73
2024/03/18 06:28:50;;;;;;;11.43;8.23;;;9.10;99.90;;;;;;5054867;28;20084;-74
2024/03/18 06:31:15;;;;;;;13.00;7.78;;;9.10;99.90;;;;;;5029321;28;20040;-77
2024/03/18 06:33:43;;;;;;;10.30;7.95;;;9.10;99.90;;;;;;5063734;28;20021;-75
2024/03/18 06:36:10;;;;;;;13.60;8.43;;;9.10;99.90;;;;;;5056414;28;20298;-75
2024/03/18 06:38:37;;;;;;;14.70;8.60;;;9.10;99.90;;;;;;5063275;28;20155;-75
2024/03/18 06:41:05;;;;;;;13.95;8.43;;;9.20;99.90;;;;;;5065394;28;20060;-75
2024/03/18 06:43:32;;;;;;;12.93;8.50;;;9.20;99.90;;;;;;5073877;28;20024;-76
2024/03/18 06:45:58;;;;;;;14.90;9.05;;;9.20;99.90;;;;;;5068569;28;20027;-76
2024/03/18 06:48:28;;;;;;;17.85;9.85;;;9.20;99.90;;;;;;5070412;28;20029;-76
2024/03/18 06:50:55;;;;;;;16.42;9.48;;;9.30;99.90;;;;;;5060936;28;20509;-75
2024/03/18 06:53:20;;;;;;;13.82;9.43;;;9.30;99.90;;;;;;5040936;28;20056;-75
2024/03/18 06:55:48;;;;;;;13.23;8.88;;;9.30;99.90;;;;;;5059702;28;20063;-72
2024/03/18 06:58:21;;;;;;;14.63;8.90;;;9.30;99.90;;;;;;5061343;28;20024;-72
2024/03/18 07:00:47;;;;;;;16.42;9.25;;;9.30;99.90;;;;;;5052917;28;20352;-73
2024/03/18 07:03:13;;;;;;;10.35;8.18;;;9.30;99.90;;;;;;5067090;28;20485;-72
2024/03/18 07:05:38;;;;;;;13.48;9.20;;;9.30;99.90;;;;;;5043358;28;20834;-72
2024/03/18 07:08:07;;;;;;;11.30;8.80;;;9.30;99.90;;;;;;5048730;28;20532;-72
2024/03/18 07:10:32;;;;;;;14.80;9.13;;;9.30;99.90;;;;;;5061387;28;20094;-73
2024/03/18 07:12:59;;;;;;;19.67;10.50;;;9.20;99.90;;;;;;5065007;28;20021;-72
2024/03/18 07:15:24;;;;;;;18.08;10.68;;;9.30;99.90;;;;;;5049003;28;20028;-72
2024/03/18 07:17:50;;;;;;;15.45;11.23;;;9.30;99.90;;;;;;5068087;28;20428;-72
2024/03/18 07:20:16;;;;;;;14.52;10.40;;;9.20;99.90;;;;;;5067733;28;20034;-72
2024/03/18 07:22:42;;;;;;;14.50;10.93;;;9.20;99.90;;;;;;5071157;28;20436;-72
2024/03/18 07:25:17;;;;;;;16.00;11.20;;;9.20;99.90;;;;;;5060772;28;20025;-71
2024/03/18 07:27:43;;;;;;;16.30;11.27;;;9.20;99.90;;;;;;5062258;28;20025;-72
2024/03/18 07:30:11;;;;;;;22.23;11.85;;;9.20;99.90;;;;;;5055496;28;20084;-72
2024/03/18 07:32:37;;;;;;;17.58;12.63;;;9.20;99.90;;;;;;5069567;28;20009;-72
2024/03/18 07:35:12;;;;;;;16.88;12.02;;;9.20;99.90;;;;;;5061530;28;20088;-73
2024/03/18 07:37:38;;;;;;;15.95;12.48;;;9.20;99.90;;;;;;5070118;28;20093;-74
2024/03/18 07:40:05;;;;;;;16.70;12.48;;;9.20;99.90;;;;;;5067862;28;20547;-72
2024/03/18 07:42:38;;;;;;;16.98;11.27;;;9.10;99.90;;;;;;5069883;28;20024;-73
2024/03/18 07:45:04;;;;;;;19.88;11.85;;;9.10;99.90;;;;;;5061984;28;20444;-72
2024/03/18 07:47:29;;;;;;;17.85;11.85;;;9.10;99.90;;;;;;5054451;28;20031;-71
2024/03/18 07:49:55;;;;;;;20.98;11.30;;;9.20;99.90;;;;;;5066245;28;20036;-72
2024/03/18 07:52:21;;;;;;;16.67;10.90;;;9.20;99.90;;;;;;5064098;28;20170;-72
2024/03/18 07:54:47;;;;;;;15.65;10.55;;;9.20;99.90;;;;;;5056035;28;20028;-73
2024/03/18 07:57:13;;;;;;;14.93;10.70;;;9.20;99.90;;;;;;5043881;28;20025;-73
2024/03/18 07:59:39;;;;;;;16.02;11.15;;;9.20;99.90;;;;;;5051954;28;20078;-72
2024/03/18 08:02:05;;;;;;;20.88;14.75;;;9.30;99.90;;;;;;5061299;28;20119;-72
2024/03/18 08:04:31;;;;;;;18.83;13.70;;;9.30;99.90;;;;;;5068816;28;20036;-72
2024/03/18 08:06:57;;;;;;;26.20;17.08;;;9.30;99.90;;;;;;5039340;28;20028;-72
2024/03/18 08:09:23;;;;;;;25.27;16.40;;;9.30;99.90;;;;;;5066496;28;20039;-72
2024/03/18 08:11:50;;;;;;;23.30;15.82;;;9.30;99.90;;;;;;5061407;28;20024;-72
2024/03/18 08:14:17;;;;;;;24.63;16.40;;;9.30;99.90;;;;;;5056960;28;20488;-71
2024/03/18 08:16:42;;;;;;;23.20;14.88;;;9.30;99.90;;;;;;5031181;28;20460;-72
2024/03/18 08:19:08;;;;;;;37.00;16.63;;;9.30;99.90;;;;;;5059455;28;20023;-72
2024/03/18 08:21:34;;;;;;;23.95;15.20;;;9.30;99.90;;;;;;5060510;28;20086;-73
2024/03/18 08:24:01;;;;;;;20.55;15.82;;;9.40;99.90;;;;;;5064468;28;20032;-72
2024/03/18 08:26:33;;;;;;;24.27;16.13;;;9.40;99.90;;;;;;5056818;28;20032;-72
2024/03/18 08:29:00;;;;;;;25.35;15.77;;;9.40;99.90;;;;;;5064685;28;20052;-72
2024/03/18 08:31:26;;;;;;;21.33;14.85;;;9.40;99.90;;;;;;5069023;28;20032;-72
2024/03/18 08:33:56;;;;;;;23.10;15.77;;;9.40;99.90;;;;;;5065555;28;20132;-72
2024/03/18 08:36:24;;;;;;;19.10;13.93;;;9.40;99.90;;;;;;5059742;28;20041;-72
2024/03/18 08:38:51;;;;;;;24.20;14.50;;;9.40;99.90;;;;;;5051443;28;20041;-73
2024/03/18 08:41:18;;;;;;;18.55;13.80;;;9.50;99.90;;;;;;5051644;28;20032;-73
2024/03/18 08:43:44;;;;;;;19.65;12.00;;;9.50;99.90;;;;;;5055377;28;20028;-72
2024/03/18 08:46:10;;;;;;;18.80;11.50;;;9.50;99.90;;;;;;5074147;28;20507;-74
2024/03/18 08:48:35;;;;;;;20.23;11.45;;;9.50;99.90;;;;;;5070254;28;20089;-74
2024/03/18 08:51:08;;;;;;;13.23;9.75;;;9.60;99.90;;;;;;5077851;28;20036;-74
2024/03/18 08:53:33;;;;;;;14.52;10.05;;;9.60;99.90;;;;;;5057076;28;20056;-74
2024/03/18 08:55:59;;;;;;;17.90;10.55;;;9.60;99.90;;;;;;5060972;28;20029;-74
2024/03/18 08:58:25;;;;;;;15.43;9.95;;;9.60;99.90;;;;;;5041815;28;20053;-75
2024/03/18 09:00:50;;;;;;;17.60;11.32;;;9.60;99.90;;;;;;5047015;28;20029;-76
2024/03/18 09:03:17;;;;;;;17.55;12.27;;;9.60;99.90;;;;;;5061322;28;20025;-75
2024/03/18 09:05:43;;;;;;;21.95;14.23;;;9.70;99.90;;;;;;5064276;28;20025;-75
2024/03/18 09:08:09;;;;;;;23.83;14.52;;;9.70;99.90;;;;;;5071099;28;20028;-74
2024/03/18 09:10:35;;;;;;;20.23;13.18;;;9.80;99.90;;;;;;5070907;28;20368;-74
2024/03/18 09:13:02;;;;;;;19.67;13.38;;;9.80;99.90;;;;;;5061953;28;20098;-74
2024/03/18 09:15:29;;;;;;;27.83;14.95;;;9.80;99.90;;;;;;5037121;28;20033;-74
2024/03/18 09:17:55;;;;;;;24.00;15.43;;;9.70;99.90;;;;;;5067605;28;20032;-74
2024/03/18 09:20:21;;;;;;;19.67;15.80;;;9.70;99.90;;;;;;5060188;28;20021;-73
2024/03/18 09:22:47;;;;;;;22.30;14.70;;;9.70;99.90;;;;;;5057507;28;20032;-74
2024/03/18 09:25:13;;;;;;;23.48;14.95;;;9.70;99.90;;;;;;5053953;28;20041;-74
2024/03/18 09:27:39;;;;;;;23.70;15.20;;;9.80;99.90;;;;;;5072523;28;20506;-75
2024/03/18 09:30:06;;;;;;;19.67;13.48;;;9.90;99.90;;;;;;5065423;28;20560;-74
2024/03/18 09:32:32;;;;;;;20.02;14.43;;;10.00;99.90;;;;;;5067575;28;20051;-74
2024/03/18 09:34:58;;;;;;;19.88;12.93;;;10.10;99.90;;;;;;5064179;28;20021;-74
2024/03/18 09:37:28;;;;;;;17.80;12.63;;;10.20;99.90;;;;;;5041922;28;20020;-75
2024/03/18 09:39:55;;;;;;;17.30;11.95;;;10.30;99.90;;;;;;5068970;28;20427;-75
2024/03/18 09:42:20;;;;;;;16.60;10.63;;;10.40;99.90;;;;;;5064074;28;20048;-75
2024/03/18 09:44:46;;;;;;;17.08;10.60;;;10.40;99.90;;;;;;5073282;28;20060;-75
2024/03/18 09:47:23;;;;;;;12.77;9.55;;;10.50;99.90;;;;;;5058559;28;20032;-75
2024/03/18 09:49:53;;;;;;;17.70;10.52;;;10.60;99.90;;;;;;5048420;28;20029;-75
2024/03/18 09:52:20;;;;;;;16.23;10.60;;;10.70;99.90;;;;;;5062633;28;20025;-75
2024/03/18 09:54:47;;;;;;;17.40;10.98;;;10.70;99.90;;;;;;5052596;28;20036;-74
2024/03/18 09:57:16;;;;;;;17.88;9.50;;;10.80;99.90;;;;;;5055036;28;20033;-74
2024/03/18 09:59:43;;;;;;;15.00;9.38;;;10.80;99.90;;;;;;5069791;28;20017;-75
2024/03/18 10:02:17;;;;;;;15.00;9.85;;;10.80;99.90;;;;;;5061894;28;20056;-74
2024/03/18 10:04:47;;;;;;;17.10;10.25;;;10.70;99.90;;;;;;5042776;28;20028;-75
2024/03/18 10:07:17;;;;;;;19.05;9.82;;;10.70;99.90;;;;;;5050648;28;20013;-76
2024/03/18 10:09:48;;;;;;;18.73;10.10;;;10.70;99.90;;;;;;5071316;28;20058;-75
2024/03/18 10:12:17;;;;;;;15.90;9.70;;;10.70;99.90;;;;;;5057124;28;20025;-75
2024/03/18 10:14:43;;;;;;;14.18;8.38;;;10.70;99.90;;;;;;5048838;28;20013;-73
2024/03/18 10:17:20;;;;;;;14.45;8.73;;;10.70;99.90;;;;;;5057143;28;20021;-75
2024/03/18 10:19:45;;;;;;;15.52;9.35;;;10.70;99.90;;;;;;5061499;28;20024;-74
2024/03/18 10:22:13;;;;;;;17.50;9.52;;;10.70;99.90;;;;;;5060443;28;20121;-74
2024/03/18 10:24:44;;;;;;;14.27;9.48;;;10.80;99.90;;;;;;5069239;28;20488;-74
2024/03/18 10:27:12;;;;;;;12.68;8.30;;;10.80;99.90;;;;;;5060663;28;20096;-74
2024/03/18 10:29:38;;;;;;;9.25;6.80;;;11.00;99.90;;;;;;5067003;28;20045;-74
2024/03/18 10:32:37;;;;;;;15.45;7.53;;;11.10;99.90;;;;;;5056640;28;20115;-74
2024/03/18 10:35:04;;;;;;;12.85;7.32;;;11.20;99.90;;;;;;5066932;28;20027;-74
2024/03/18 10:37:32;;;;;;;12.20;7.47;;;11.40;99.90;;;;;;5043316;28;20112;-75
2024/03/18 10:40:07;;;;;;;11.93;7.32;;;11.50;99.90;;;;;;5052531;28;20111;-75
2024/03/18 10:42:41;;;;;;;12.98;7.47;;;11.50;99.90;;;;;;5071359;28;20028;-75
2024/03/18 10:45:14;;;;;;;11.25;7.70;;;11.60;99.90;;;;;;5045228;28;20820;-75
2024/03/18 10:47:41;;;;;;;10.55;7.13;;;11.60;99.90;;;;;;5057034;28;20050;-74
2024/03/18 10:50:14;;;;;;;9.95;6.93;;;11.60;99.90;;;;;;5036805;28;20052;-74
2024/03/18 10:52:40;;;;;;;11.63;7.75;;;11.50;99.90;;;;;;5059072;28;20024;-75
2024/03/18 10:55:17;;;;;;;12.05;7.00;;;11.50;99.90;;;;;;5041345;28;20017;-75
2024/03/18 10:57:46;;;;;;;11.25;8.05;;;11.40;99.90;;;;;;5056494;28;20029;-75
2024/03/18 11:00:13;;;;;;;10.88;7.57;;;11.40;99.90;;;;;;5051257;28;20021;-74
2024/03/18 11:02:41;;;;;;;12.02;7.68;;;11.40;99.90;;;;;;5059562;28;20029;-74
2024/03/18 11:05:32;;;;;;;11.93;8.02;;;11.40;99.90;;;;;;5032686;28;20119;-74
2024/03/18 11:08:01;;;;;;;14.93;8.88;;;11.30;99.90;;;;;;5055060;28;20025;-75
2024/03/18 11:10:36;;;;;;;14.88;8.70;;;11.30;99.90;;;;;;5059871;28;20036;-75
2024/03/18 11:13:27;;;;;;;14.55;9.32;;;11.30;99.90;;;;;;5070096;28;20020;-75
2024/03/18 11:15:55;;;;;;;13.40;8.73;;;11.20;99.90;;;;;;5063368;28;20028;-75
2024/03/18 11:18:25;;;;;;;12.40;8.25;;;11.20;99.90;;;;;;5066269;28;20063;-74
2024/03/18 11:20:53;;;;;;;13.43;8.57;;;11.10;99.90;;;;;;5058992;28;20545;-74
2024/03/18 11:23:23;;;;;;;12.45;9.60;;;11.20;99.90;;;;;;5063278;28;20158;-74
2024/03/18 11:26:03;;;;;;;14.60;8.73;;;11.20;99.90;;;;;;5075181;28;20111;-75
2024/03/18 11:28:41;;;;;;;16.37;9.30;;;11.10;99.90;;;;;;5066023;28;20119;-74
2024/03/18 11:31:12;;;;;;;15.38;9.75;;;11.10;99.90;;;;;;5053447;28;20295;-75
2024/03/18 11:33:39;;;;;;;14.07;9.70;;;11.00;99.90;;;;;;5068531;28;20051;-75
2024/03/18 11:36:06;;;;;;;14.73;10.63;;;10.90;99.90;;;;;;5064622;28;20580;-77
2024/03/18 11:38:32;;;;;;;25.70;13.85;;;10.80;99.90;;;;;;5058124;28;20032;-74
2024/03/18 11:40:59;;;;;;;21.48;12.75;;;10.80;99.90;;;;;;5049597;28;20021;-75
2024/03/18 11:43:26;;;;;;;18.42;12.52;;;10.70;99.90;;;;;;5014655;28;20037;-76
2024/03/18 11:45:53;;;;;;;17.27;12.98;;;10.80;99.90;;;;;;5046493;28;20037;-75
2024/03/18 11:48:19;;;;;;;15.73;12.48;;;10.70;99.90;;;;;;5062680;28;20119;-72
2024/03/18 11:50:46;;;;;;;17.58;12.38;;;10.70;99.90;;;;;;5061942;28;20054;-71
2024/03/18 11:53:16;;;;;;;17.35;11.00;;;10.70;99.90;;;;;;5061336;28;20028;-72
2024/03/18 11:55:42;;;;;;;14.63;10.20;;;10.70;99.90;;;;;;5067639;28;20142;-72
2024/03/18 11:58:13;;;;;;;12.35;9.68;;;10.70;99.90;;;;;;5056385;28;20115;-72
2024/03/18 12:00:38;;;;;;;14.00;9.65;;;10.80;99.90;;;;;;5039507;28;20024;-72
2024/03/18 12:03:11;;;;;;;12.02;7.90;;;10.70;99.90;;;;;;5063644;28;20193;-72
2024/03/18 12:05:39;;;;;;;11.90;8.25;;;10.70;99.90;;;;;;5064521;28;20024;-72
2024/03/18 12:08:07;;;;;;;13.30;8.38;;;10.70;99.90;;;;;;5067614;28;20056;-72
2024/03/18 12:10:34;;;;;;;11.32;8.50;;;10.60;99.90;;;;;;5066348;28;20086;-72
2024/03/18 12:13:03;;;;;;;12.10;8.23;;;10.50;99.90;;;;;;5056601;28;20024;-72
2024/03/18 12:15:29;;;;;;;11.55;8.50;;;10.50;99.90;;;;;;5062475;28;20032;-72
2024/03/18 12:17:55;;;;;;;11.35;7.10;;;10.50;99.90;;;;;;5060757;28;20020;-72
2024/03/18 12:20:23;;;;;;;11.00;7.10;;;10.50;99.90;;;;;;5060357;28;20379;-72
2024/03/18 12:23:16;;;;;;;12.30;7.00;;;10.50;99.90;;;;;;5061708;28;20028;-72
2024/03/18 12:28:44;;;;;;;11.07;6.53;;;10.40;99.90;;;;;;5018981;28;20043;-71
2024/03/18 12:31:16;;;;;;;11.23;7.22;;;10.40;99.90;;;;;;5078174;28;20061;-72
2024/03/18 12:33:51;;;;;;;9.00;6.43;;;10.40;99.90;;;;;;5059987;28;20025;-72
2024/03/18 12:36:17;;;;;;;9.05;5.85;;;10.30;99.90;;;;;;5063562;28;20099;-72
2024/03/18 12:38:48;;;;;;;13.68;5.28;;;10.30;99.90;;;;;;5032773;28;20021;-72
2024/03/18 12:41:20;;;;;;;8.77;4.65;;;10.30;99.90;;;;;;5040516;28;20135;-72
2024/03/18 12:43:46;;;;;;;6.80;3.92;;;10.30;99.90;;;;;;5065413;28;20495;-73
2024/03/18 12:46:13;;;;;;;6.57;3.50;;;10.30;99.90;;;;;;5046149;28;20040;-72
2024/03/18 12:48:40;;;;;;;6.70;3.20;;;10.30;99.90;;;;;;5040905;28;20135;-72